Time;durP1;ratioP1;P1;durP2;ratioP2;P2;SDS_P1;SDS_P2;PMS_P1;PMS_P2;Temp;Humidity;BMP_temperature;BMP_pressure;BME280_temperature;BME280_humidity;BME280_pressure;Samples;Min_cycle;Max_cycle;Signal;HPM_P1;HPM_P2
2022/06/20 00:02:17;;;;;;;3.05;1.50;;;;;;;16.59;62.64;98370.09;5074753;28;20066;-75
2022/06/20 00:04:45;;;;;;;4.97;1.70;;;;;;;16.64;62.67;98381.72;5073824;28;20052;-75
2022/06/20 00:07:13;;;;;;;2.72;1.45;;;;;;;16.59;62.77;98365.31;5074581;28;20052;-75
2022/06/20 00:09:40;;;;;;;2.75;1.63;;;;;;;16.52;62.74;98375.72;5075163;28;20415;-75
2022/06/20 00:12:12;;;;;;;3.42;2.00;;;;;;;16.52;63.10;98370.13;5074599;28;20055;-76
2022/06/20 00:14:39;;;;;;;2.97;1.52;;;;;;;16.58;62.64;98383.34;5074923;28;20048;-75
2022/06/20 00:17:12;;;;;;;3.65;1.20;;;;;;;16.56;62.29;98382.13;5074576;28;20071;-75
2022/06/20 00:19:40;;;;;;;2.38;1.48;;;;;;;16.49;62.67;98382.16;5074963;28;20131;-76
2022/06/20 00:22:07;;;;;;;2.75;1.55;;;;;;;16.51;62.61;98385.34;5074225;28;20114;-75
2022/06/20 00:24:34;;;;;;;6.57;2.03;;;;;;;16.47;62.88;98362.06;5074306;28;20053;-75
2022/06/20 00:27:06;;;;;;;11.38;1.73;;;;;;;16.35;62.58;98361.22;5074520;28;20139;-69
2022/06/20 00:29:35;;;;;;;4.68;1.25;;;;;;;16.37;62.97;98377.66;5074141;28;20056;-69
2022/06/20 00:32:03;;;;;;;3.78;1.48;;;;;;;16.37;62.82;98363.63;5074065;28;20054;-69
2022/06/20 00:34:30;;;;;;;6.00;1.67;;;;;;;16.35;63.39;98363.25;5074311;28;20055;-69
2022/06/20 00:36:57;;;;;;;8.65;1.80;;;;;;;16.26;63.81;98357.22;5080265;28;20512;-72
2022/06/20 00:39:24;;;;;;;4.85;1.60;;;;;;;16.19;63.63;98365.63;5094407;28;20143;-72
2022/06/20 00:41:52;;;;;;;3.30;1.38;;;;;;;16.09;63.78;98358.81;5094380;28;20139;-71
2022/06/20 00:44:27;;;;;;;3.88;1.50;;;;;;;16.09;63.58;98336.34;5094353;28;20056;-72
2022/06/20 00:47:28;;;;;;;78.15;31.17;;;;;;;16.10;63.41;98331.53;5094237;28;20140;-72
2022/06/20 00:50:26;;;;;;;6.90;3.75;;;;;;;16.08;63.67;98348.75;5094195;28;20541;-72
2022/06/20 00:53:22;;;;;;;7.13;2.05;;;;;;;16.10;64.06;98353.97;5094061;28;20132;-69
2022/06/20 00:56:23;;;;;;;3.65;1.80;;;;;;;16.05;64.61;98368.41;5094103;28;20165;-69
2022/06/20 00:59:14;;;;;;;3.50;1.63;;;;;;;16.05;64.65;98374.81;5094120;28;20047;-68
2022/06/20 01:02:02;;;;;;;7.95;2.25;;;;;;;16.02;65.01;98372.78;5073833;28;20059;-71
2022/06/20 01:04:57;;;;;;;3.58;2.10;;;;;;;15.98;65.02;98386.00;5074086;28;20098;-71
2022/06/20 01:07:49;;;;;;;3.85;1.67;;;;;;;15.98;65.76;98394.44;5073859;28;20143;-71
2022/06/20 01:10:47;;;;;;;5.80;2.00;;;;;;;15.95;65.92;98398.03;5074105;28;20186;-71
2022/06/20 01:13:33;;;;;;;6.47;3.03;;;;;;;15.85;66.50;98381.97;5073326;28;20047;-75
2022/06/20 01:16:32;;;;;;;3.75;1.60;;;;;;;15.79;66.71;98375.16;5074011;28;20101;-74
2022/06/20 01:19:40;;;;;;;9.70;2.50;;;;;;;15.70;66.66;98377.50;5073741;28;20052;-74
2022/06/20 01:22:32;;;;;;;3.60;1.70;;;;;;;15.65;67.34;98374.28;5073544;28;20208;-75
2022/06/20 01:25:36;;;;;;;2.92;1.73;;;;;;;15.63;67.05;98380.28;5073199;28;20584;-75
2022/06/20 01:28:33;;;;;;;6.28;2.33;;;;;;;15.68;67.03;98379.91;5092254;28;20051;-75
2022/06/20 01:31:20;;;;;;;4.38;1.58;;;;;;;15.65;67.03;98399.50;5093716;28;20063;-75
2022/06/20 01:34:07;;;;;;;2.20;1.40;;;;;;;15.64;67.05;98407.13;5092606;28;20136;-71
2022/06/20 01:40:06;;;;;;;4.17;1.67;;;;;;;15.60;67.34;98392.28;5093238;28;20054;-71
2022/06/20 01:42:52;;;;;;;3.53;2.22;;;;;;;15.52;67.23;98390.66;5093179;28;20066;-73
2022/06/20 01:48:49;;;;;;;3.03;1.80;;;;;;;15.45;67.02;98362.56;5093096;28;20054;-69
2022/06/20 01:51:50;;;;;;;2.38;1.50;;;;;;;15.45;66.60;98356.19;5093144;28;20059;-68
2022/06/20 01:54:48;;;;;;;2.72;1.73;;;;;;;15.46;67.08;98353.00;5093362;28;20055;-70
2022/06/20 01:57:37;;;;;;;6.80;1.90;;;;;;;15.49;66.90;98352.19;5093080;28;20047;-72
2022/06/20 02:00:24;;;;;;;3.17;1.45;;;;;;;15.44;67.05;98338.56;5087073;28;20052;-72
2022/06/20 02:03:19;;;;;;;5.45;1.85;;;;;;;15.49;66.87;98354.19;5073069;28;20197;-72
2022/06/20 02:06:08;;;;;;;3.53;1.60;;;;;;;15.48;66.85;98356.19;5072547;28;20082;-72
2022/06/20 02:08:56;;;;;;;3.92;1.85;;;;;;;15.39;67.26;98361.34;5072051;28;20163;-72
2022/06/20 02:11:45;;;;;;;4.05;1.70;;;;;;;15.37;67.28;98363.72;5072684;28;20067;-71
2022/06/20 02:14:41;;;;;;;2.70;1.80;;;;;;;15.37;67.51;98365.72;5072794;28;20047;-72
2022/06/20 02:17:34;;;;;;;2.42;1.70;;;;;;;15.43;67.33;98364.97;5072606;28;20064;-72
2022/06/20 02:20:27;;;;;;;6.88;1.38;;;;;;;15.43;67.47;98387.41;5072683;28;20068;-71
2022/06/20 02:23:25;;;;;;;3.58;2.00;;;;;;;15.39;67.67;98392.16;5071256;28;20048;-71
2022/06/20 02:26:13;;;;;;;7.47;1.92;;;;;;;15.38;67.43;98398.16;5072875;28;20058;-71
2022/06/20 02:29:22;;;;;;;3.05;1.38;;;;;;;15.31;67.63;98389.69;5082356;28;20137;-72
2022/06/20 02:32:17;;;;;;;5.35;1.83;;;;;;;15.22;68.09;98376.00;5092294;28;20164;-71
2022/06/20 02:35:06;;;;;;;3.65;1.52;;;;;;;15.24;67.86;98361.63;5092680;28;20464;-71
2022/06/20 02:37:52;;;;;;;4.15;2.20;;;;;;;15.24;68.28;98345.63;5086595;28;20047;-72
2022/06/20 02:40:42;;;;;;;2.80;1.45;;;;;;;15.22;68.15;98336.78;5072745;28;20052;-71
2022/06/20 02:43:36;;;;;;;3.17;1.50;;;;;;;15.25;68.02;98335.22;5072716;28;20059;-72
2022/06/20 02:46:25;;;;;;;6.60;1.88;;;;;;;15.28;68.17;98326.03;5076281;28;20063;-72
2022/06/20 02:49:13;;;;;;;5.30;1.60;;;;;;;15.40;68.32;98311.72;5076359;28;20059;-72
2022/06/20 02:51:59;;;;;;;5.22;2.33;;;;;;;15.42;68.30;98326.91;5076269;28;20051;-72
2022/06/20 02:54:46;;;;;;;7.25;3.05;;;;;;;15.43;68.26;98334.16;5075819;28;20411;-72
2022/06/20 02:57:37;;;;;;;4.18;2.28;;;;;;;15.43;68.52;98359.38;5075109;28;20070;-71
2022/06/20 03:00:31;;;;;;;5.15;1.75;;;;;;;15.42;68.41;98343.75;5075993;28;20058;-71
2022/06/20 03:03:30;;;;;;;3.65;1.90;;;;;;;15.38;68.78;98347.72;5075705;28;20056;-71
2022/06/20 03:06:39;;;;;;;5.85;2.17;;;;;;;15.40;68.37;98348.13;5075775;28;20066;-72
2022/06/20 03:09:29;;;;;;;5.00;1.73;;;;;;;15.40;68.20;98320.13;5075261;28;20509;-72
2022/06/20 03:12:15;;;;;;;;;;;;;;;15.43;67.95;98308.94;5076498;28;20054;-72
2022/06/20 03:15:01;;;;;;;3.25;1.60;;;;;;;15.63;68.35;98312.97;5075508;28;19947;-72
2022/06/20 03:17:49;;;;;;;3.42;2.00;;;;;;;15.67;67.73;98313.81;5076241;28;20420;-72
2022/06/20 03:20:35;;;;;;;5.10;2.08;;;;;;;15.69;67.76;98333.84;5075449;28;20050;-72
2022/06/20 03:23:30;;;;;;;3.13;1.92;;;;;;;15.85;67.65;98336.28;5075921;28;20083;-72
2022/06/20 03:26:24;;;;;;;8.80;1.75;;;;;;;15.84;67.25;98332.69;5075708;28;20572;-72
2022/06/20 03:29:15;;;;;;;6.05;2.05;;;;;;;15.83;67.52;98321.84;5075605;28;20063;-72
2022/06/20 03:32:00;;;;;;;4.70;1.75;;;;;;;15.81;67.23;98319.44;5075367;28;20046;-72
2022/06/20 03:34:46;;;;;;;6.43;1.77;;;;;;;15.70;67.26;98315.84;5075335;28;20059;-69
2022/06/20 03:37:32;;;;;;;6.45;1.80;;;;;;;15.65;67.43;98338.63;5075236;28;20047;-75
2022/06/20 03:40:18;;;;;;;5.05;1.60;;;;;;;15.64;67.24;98339.84;5085601;28;20063;-71
2022/06/20 03:43:05;;;;;;;3.08;1.60;;;;;;;15.55;67.69;98347.00;5095269;28;20055;-71
2022/06/20 03:46:00;;;;;;;4.22;2.00;;;;;;;15.51;67.33;98338.56;5095644;28;20189;-71
2022/06/20 03:49:06;;;;;;;5.10;1.70;;;;;;;15.55;67.21;98350.63;5095757;28;20059;-71
2022/06/20 03:52:02;;;;;;;6.32;1.88;;;;;;;15.61;67.13;98343.44;5095425;28;20106;-71
2022/06/20 03:55:11;;;;;;;4.45;1.98;;;;;;;15.61;67.41;98376.25;5095066;28;20132;-71
2022/06/20 03:58:11;;;;;;;4.60;1.80;;;;;;;15.56;67.28;98362.63;5094788;28;20446;-71
2022/06/20 04:01:03;;;;;;;8.48;2.08;;;;;;;15.52;67.37;98351.41;5084153;28;20091;-71
2022/06/20 04:04:02;;;;;;;5.00;1.83;;;;;;;15.57;67.14;98327.81;5075239;28;20051;-71
2022/06/20 04:06:57;;;;;;;3.73;1.77;;;;;;;15.54;67.76;98332.19;5087458;28;20062;-71
2022/06/20 04:13:32;;;;;;;2.80;1.42;;;;;;;15.57;67.31;98314.56;5115742;28;20414;-69
2022/06/20 04:16:23;;;;;;;3.95;1.73;;;;;;;15.67;67.20;98341.03;5115670;28;20534;-69
2022/06/20 04:19:13;;;;;;;2.95;1.73;;;;;;;15.68;67.11;98345.44;5115313;28;20058;-69
2022/06/20 04:22:33;;;;;;;2.75;1.98;;;;;;;15.68;67.30;98345.44;5121897;27;20175;-69
2022/06/20 04:25:28;;;;;;;8.32;2.10;;;;;;;15.67;67.71;98332.63;5130707;27;20499;-69
2022/06/20 04:28:32;;;;;;;3.20;1.48;;;;;;;15.79;66.90;98321.88;5135618;27;20160;-70
2022/06/20 04:32:00;;;;;;;4.07;1.88;;;;;;;15.93;66.84;98324.69;5114668;28;20126;-71
2022/06/20 04:35:05;;;;;;;4.53;1.70;;;;;;;15.93;66.41;98341.50;5114947;28;20152;-71
2022/06/20 04:37:59;;;;;;;4.68;2.08;;;;;;;16.00;65.80;98343.53;5114829;28;20053;-71
2022/06/20 04:41:14;;;;;;;4.45;1.70;;;;;;;16.03;65.83;98362.38;5131863;27;20139;-75
2022/06/20 04:44:10;;;;;;;8.15;2.05;;;;;;;15.96;65.89;98360.34;5120028;27;20123;-72
2022/06/20 04:47:21;;;;;;;4.20;1.73;;;;;;;16.02;65.71;98346.75;5135350;27;20058;-72
2022/06/20 04:50:15;;;;;;;6.60;2.20;;;;;;;16.10;65.97;98323.09;5134436;27;20506;-72
2022/06/20 04:53:11;;;;;;;3.70;1.67;;;;;;;16.26;65.26;98321.53;5135058;27;20057;-72
2022/06/20 04:56:00;;;;;;;6.18;1.92;;;;;;;16.33;65.17;98323.53;5135228;27;20046;-71
2022/06/20 04:58:53;;;;;;;5.03;1.90;;;;;;;16.48;64.75;98330.78;5134983;27;20053;-72
2022/06/20 05:01:40;;;;;;;7.25;1.88;;;;;;;16.62;64.45;98324.38;5111458;28;20189;-72
2022/06/20 05:04:31;;;;;;;4.95;2.10;;;;;;;16.71;64.18;98334.00;5114729;28;20101;-72
2022/06/20 05:07:23;;;;;;;5.32;2.22;;;;;;;16.77;63.99;98326.78;5113574;28;20131;-72
2022/06/20 05:10:34;;;;;;;3.95;2.30;;;;;;;16.78;63.61;98344.44;5114230;28;20104;-72
2022/06/20 05:13:26;;;;;;;5.20;2.00;;;;;;;16.74;63.61;98338.00;5114403;28;20054;-72
2022/06/20 05:16:20;;;;;;;4.63;1.85;;;;;;;16.69;63.89;98342.03;5113925;28;20063;-72
2022/06/20 05:19:13;;;;;;;4.40;2.15;;;;;;;16.55;63.90;98366.50;5113956;28;20200;-72
2022/06/20 05:22:03;;;;;;;5.85;1.90;;;;;;;16.54;63.87;98365.69;5113693;28;20182;-72
2022/06/20 05:24:52;;;;;;;5.63;2.13;;;;;;;16.63;63.77;98370.91;5114187;28;20398;-73
2022/06/20 05:27:46;;;;;;;6.35;1.90;;;;;;;16.54;63.40;98370.50;5113480;28;20070;-72
2022/06/20 05:30:36;;;;;;;3.70;1.73;;;;;;;16.50;63.77;98378.13;5132723;27;20192;-75
2022/06/20 05:33:34;;;;;;;7.53;2.03;;;;;;;16.44;63.55;98378.50;5134251;27;20092;-77
2022/06/20 05:36:14;;;;;;;6.05;2.00;;;;;;;16.32;63.58;98383.69;5134061;27;20054;-71
2022/06/20 05:39:07;;;;;;;3.75;2.50;;;;;;;16.32;63.58;98411.75;5133816;27;20134;-73
2022/06/20 05:41:34;;;;;;;5.38;2.33;;;;;;;16.24;63.93;98424.97;5133800;27;20487;-72
2022/06/20 05:44:04;;;;;;;6.72;2.17;;;;;;;16.23;63.91;98423.34;5134067;27;20039;-72
2022/06/20 05:46:36;;;;;;;4.97;2.13;;;;;;;16.10;63.95;98432.53;5134268;27;20046;-71
2022/06/20 05:49:09;;;;;;;;;;;;;;;15.95;64.41;98428.88;5134463;27;20047;-72
2022/06/20 05:51:40;;;;;;;12.07;2.78;;;;;;;15.90;64.63;98429.25;5133959;27;19927;-71
2022/06/20 05:54:33;;;;;;;4.88;1.95;;;;;;;15.95;64.22;98428.88;5133501;27;20054;-71
2022/06/20 05:57:08;;;;;;;2.83;1.58;;;;;;;15.92;64.76;98443.69;5125507;27;20605;-71
2022/06/20 05:59:41;;;;;;;3.97;1.95;;;;;;;15.92;64.39;98438.09;5133670;27;20047;-75
2022/06/20 06:02:14;;;;;;;6.82;2.40;;;;;;;16.00;64.48;98433.31;5112993;28;20069;-75
2022/06/20 06:04:49;;;;;;;7.05;2.28;;;;;;;16.00;64.65;98420.09;5113441;28;20402;-75
2022/06/20 06:07:21;;;;;;;6.03;2.25;;;;;;;16.12;64.16;98425.34;5113188;28;20060;-75
2022/06/20 06:09:52;;;;;;;4.03;1.95;;;;;;;16.17;64.08;98413.72;5113017;28;20463;-76
2022/06/20 06:12:27;;;;;;;6.13;2.10;;;;;;;16.17;64.39;98407.31;5112847;28;20520;-74
2022/06/20 06:15:11;;;;;;;9.75;2.05;;;;;;;16.21;63.99;98408.13;5113302;28;20046;-75
2022/06/20 06:17:49;;;;;;;6.90;2.28;;;;;;;16.35;63.74;98400.53;5112641;28;20048;-75
2022/06/20 06:20:24;;;;;;;6.47;2.05;;;;;;;16.63;63.23;98391.38;5112921;28;20482;-76
2022/06/20 06:22:56;;;;;;;6.47;1.88;;;;;;;16.94;62.51;98395.38;5112738;28;20047;-76
2022/06/20 06:25:29;;;;;;;8.05;2.50;;;;;;;17.58;60.85;98389.25;5113060;28;20066;-76
2022/06/20 06:28:27;;;;;;;9.27;1.80;;;;;;;17.72;59.98;98377.97;5112950;28;20078;-74
2022/06/20 06:30:54;;;;;;;4.50;1.77;;;;;;;17.70;59.75;98371.13;5112413;28;20071;-75
2022/06/20 06:33:26;;;;;;;8.43;1.80;;;;;;;17.81;59.23;98357.81;5112736;28;20048;-75
2022/06/20 06:36:30;;;;;;;3.83;1.98;;;;;;;18.10;58.54;98370.53;5112661;28;20146;-76
2022/06/20 06:39:12;;;;;;;7.10;1.88;;;;;;;17.88;58.92;98391.53;5126885;28;20039;-76
2022/06/20 06:41:45;;;;;;;4.35;1.90;;;;;;;17.77;59.45;98390.81;5134062;28;20074;-76
2022/06/20 06:44:17;;;;;;;4.07;2.08;;;;;;;18.44;57.82;98399.72;5133427;28;20055;-76
2022/06/20 06:46:48;;;;;;;4.68;1.60;;;;;;;18.87;56.73;98392.56;5133174;28;20154;-75
2022/06/20 06:49:27;;;;;;;3.58;2.05;;;;;;;19.32;55.56;98393.38;5133519;28;20492;-73
2022/06/20 06:51:58;;;;;;;17.52;2.13;;;;;;;19.76;54.29;98387.66;5133431;28;20141;-74
2022/06/20 06:54:53;;;;;;;7.40;1.80;;;;;;;20.51;51.77;98393.91;5133092;28;20054;-74
2022/06/20 06:57:43;;;;;;;13.90;2.35;;;;;;;21.22;50.48;98388.72;5097939;28;20138;-74
2022/06/20 07:00:19;;;;;;;9.00;1.50;;;;;;;21.78;48.83;98389.72;5127968;28;20126;-74
2022/06/20 07:02:57;;;;;;;10.20;2.28;;;;;;;21.30;49.45;98402.34;5112147;28;20138;-73
2022/06/20 07:05:31;;;;;;;4.50;1.70;;;;;;;22.64;46.84;98410.94;5112705;28;20043;-73
2022/06/20 07:08:11;;;;;;;4.75;1.65;;;;;;;23.38;44.81;98406.31;5112064;28;20067;-73
2022/06/20 07:10:56;;;;;;;4.93;1.77;;;;;;;23.38;44.60;98414.84;5112218;28;20052;-75
2022/06/20 07:13:44;;;;;;;5.03;1.73;;;;;;;23.55;43.23;98414.34;5112261;28;20502;-73
2022/06/20 07:16:28;;;;;;;8.70;1.60;;;;;;;23.86;42.21;98418.34;5112396;28;20039;-74
2022/06/20 07:18:57;;;;;;;7.30;2.78;;;;;;;24.13;41.68;98409.50;5112496;28;20514;-74
2022/06/20 07:21:27;;;;;;;5.05;1.80;;;;;;;25.38;39.16;98414.50;5112265;28;20051;-74
2022/06/20 07:24:05;;;;;;;5.97;1.65;;;;;;;28.60;33.68;98416.91;5112213;28;20066;-74
2022/06/20 07:26:53;;;;;;;4.88;1.58;;;;;;;31.77;28.06;98413.72;5112071;28;20130;-72
2022/06/20 07:29:24;;;;;;;5.68;1.88;;;;;;;35.05;23.88;98423.00;5112219;28;20101;-72
2022/06/20 07:31:59;;;;;;;11.38;1.80;;;;;;;37.75;21.02;98420.91;5121414;27;20054;-74
2022/06/20 07:34:33;;;;;;;5.20;1.85;;;;;;;39.93;19.38;98416.59;5136525;27;20046;-74
2022/06/20 07:37:23;;;;;;;8.18;1.50;;;;;;;41.70;17.40;98418.31;5136128;27;20050;-71
2022/06/20 07:39:51;;;;;;;4.70;1.67;;;;;;;42.76;16.41;98417.63;5122949;27;20047;-72
2022/06/20 07:42:33;;;;;;;5.82;1.60;;;;;;;42.97;15.32;98412.41;5135337;27;20047;-71
2022/06/20 07:45:13;;;;;;;6.72;1.42;;;;;;;40.91;16.95;98415.00;5136191;27;20041;-70
2022/06/20 07:47:54;;;;;;;5.90;1.80;;;;;;;42.99;15.36;98415.53;5135877;27;20099;-72
2022/06/20 07:50:39;;;;;;;6.57;1.67;;;;;;;41.30;15.42;98411.91;5136230;27;20135;-71
2022/06/20 07:53:20;;;;;;;11.60;1.70;;;;;;;39.56;16.90;98405.88;5135975;27;20051;-72
2022/06/20 07:55:53;;;;;;;5.45;1.83;;;;;;;41.16;15.30;98404.56;5136138;27;20047;-71
2022/06/20 07:58:26;;;;;;;5.82;1.75;;;;;;;38.50;16.85;98407.28;5136243;27;20085;-75
2022/06/20 08:00:55;;;;;;;7.68;2.10;;;;;;;33.40;22.23;98400.03;5125093;27;20071;-71
2022/06/20 08:03:39;;;;;;;6.30;1.90;;;;;;;35.12;21.11;98405.09;5115534;28;20092;-69
2022/06/20 08:06:25;;;;;;;9.00;1.70;;;;;;;34.89;20.44;98412.97;5114878;28;20051;-70
2022/06/20 08:09:06;;;;;;;4.15;1.63;;;;;;;38.97;17.62;98409.28;5114691;28;20051;-69
2022/06/20 08:11:45;;;;;;;3.85;1.40;;;;;;;38.42;17.75;98418.75;5115176;28;20521;-73
2022/06/20 08:14:40;;;;;;;5.32;1.55;;;;;;;34.92;20.17;98432.16;5115540;28;20051;-70
2022/06/20 08:17:10;;;;;;;6.50;1.70;;;;;;;36.10;19.18;98425.72;5115057;28;20586;-72
2022/06/20 08:19:40;;;;;;;5.05;2.10;;;;;;;36.39;18.90;98425.88;5114832;28;20055;-72
2022/06/20 08:22:22;;;;;;;3.13;1.23;;;;;;;37.31;17.91;98424.22;5128410;27;20130;-70
2022/06/20 08:25:01;;;;;;;7.90;1.38;;;;;;;36.39;18.94;98414.28;5135873;27;20055;-70
2022/06/20 08:27:38;;;;;;;4.32;1.70;;;;;;;37.77;18.01;98426.94;5136202;27;20073;-70
2022/06/20 08:30:13;;;;;;;7.82;2.33;;;;;;;39.55;16.38;98424.69;5104099;28;20521;-70
2022/06/20 08:32:43;;;;;;;5.13;1.60;;;;;;;39.85;15.90;98422.31;5114646;28;20133;-70
2022/06/20 08:35:58;;;;;;;11.68;1.30;;;;;;;38.64;16.08;98418.47;5114830;28;20048;-70
2022/06/20 08:38:32;;;;;;;10.68;1.63;;;;;;;39.74;15.39;98410.81;5051843;28;20049;-71
2022/06/20 08:41:23;;;;;;;7.13;1.30;;;;;;;35.80;18.02;98418.94;5051449;28;20049;-72
2022/06/20 08:44:11;;;;;;;12.35;2.28;;;;;;;36.91;17.71;98428.72;5051517;28;20384;-71
2022/06/20 08:47:12;;;;;;;9.05;1.73;;;;;;;39.06;15.95;98431.34;5051325;28;20045;-71
2022/06/20 08:49:57;;;;;;;3.60;1.27;;;;;;;40.77;13.80;98425.13;5055331;28;20139;-72
2022/06/20 08:52:51;;;;;;;8.20;1.25;;;;;;;38.60;15.79;98418.03;5071342;28;20055;-70
2022/06/20 08:55:39;;;;;;;3.13;1.30;;;;;;;39.10;14.87;98409.31;5071215;28;20159;-71
2022/06/20 08:58:12;;;;;;;;;;;;;;;39.11;14.75;98407.97;5071822;28;20059;-72
2022/06/20 09:00:47;;;;;;;12.13;1.73;;;;;;;39.94;14.02;98407.28;5062761;28;20479;-72
2022/06/20 09:03:23;;;;;;;27.70;10.52;;;;;;;37.32;16.14;98412.06;5051625;28;20057;-71
2022/06/20 09:06:07;;;;;;;5.07;1.48;;;;;;;35.76;17.69;98413.44;5051055;28;20044;-71
2022/06/20 09:09:00;;;;;;;3.20;1.40;;;;;;;35.17;18.14;98430.34;5043806;28;20094;-68
2022/06/20 09:11:47;;;;;;;6.20;1.10;;;;;;;32.39;20.00;98439.94;5106597;28;20055;-69
2022/06/20 09:14:58;;;;;;;3.50;1.30;;;;;;;29.44;22.97;98430.75;5113732;28;20461;-69
2022/06/20 09:17:46;;;;;;;8.98;1.38;;;;;;;27.77;25.09;98426.75;5113929;28;20051;-70
2022/06/20 09:20:29;;;;;;;3.10;1.13;;;;;;;27.13;25.85;98427.06;5113937;28;20090;-69
2022/06/20 09:23:18;;;;;;;5.65;1.15;;;;;;;26.28;26.66;98424.69;5113386;28;20047;-70
2022/06/20 09:25:45;;;;;;;;;;;;;;;26.10;26.65;98424.53;5114346;28;20040;-71
2022/06/20 09:28:37;;;;;;;5.15;1.20;;;;;;;25.99;26.66;98432.69;5113664;28;20262;-70
2022/06/20 09:31:19;;;;;;;6.97;2.30;;;;;;;25.13;27.86;98426.69;5114271;28;20050;-70
2022/06/20 09:34:08;;;;;;;10.82;1.52;;;;;;;24.80;28.49;98416.81;5095973;28;20062;-70
2022/06/20 09:37:02;;;;;;;53.35;6.03;;;;;;;24.77;28.57;98403.50;5113447;28;20050;-70
2022/06/20 09:39:52;;;;;;;5.65;1.48;;;;;;;24.37;29.09;98414.44;5118226;27;20039;-70
2022/06/20 09:42:38;;;;;;;21.48;1.95;;;;;;;23.77;29.98;98420.25;5133867;27;20561;-71
2022/06/20 09:45:37;;;;;;;41.50;13.73;;;;;;;23.42;30.86;98429.72;5134196;27;20082;-75
2022/06/20 09:48:07;;;;;;;3.83;1.30;;;;;;;23.15;31.29;98427.91;5133840;27;20051;-74
2022/06/20 09:50:46;;;;;;;3.78;1.08;;;;;;;23.44;31.05;98430.09;5134144;27;20050;-71
2022/06/20 09:53:59;;;;;;;4.63;1.20;;;;;;;23.80;30.72;98427.88;5133558;27;20043;-71
2022/06/20 09:56:57;;;;;;;6.30;1.88;;;;;;;23.83;31.21;98432.69;5133917;27;20051;-73
2022/06/20 10:00:02;;;;;;;4.55;1.08;;;;;;;23.54;31.32;98434.69;5132886;27;20055;-72
2022/06/20 10:03:16;;;;;;;16.08;3.13;;;;;;;23.10;32.00;98436.19;5112659;28;20047;-70
2022/06/20 10:06:06;;;;;;;3.60;1.00;;;;;;;22.67;32.95;98433.56;5093573;28;20146;-71
2022/06/20 10:08:57;;;;;;;3.05;1.00;;;;;;;22.62;33.08;98433.28;5113014;28;20482;-71
2022/06/20 10:11:30;;;;;;;4.55;1.17;;;;;;;22.66;32.66;98420.63;5112929;28;20096;-71
2022/06/20 10:14:08;;;;;;;61.15;22.95;;;;;;;22.60;32.59;98427.25;5112844;28;20054;-71
2022/06/20 10:16:45;;;;;;;7.82;1.73;;;;;;;22.46;32.83;98419.81;5113075;28;20047;-71
2022/06/20 10:19:42;;;;;;;4.75;0.70;;;;;;;22.45;32.37;98429.56;5117661;28;20046;-71
2022/06/20 10:22:25;;;;;;;4.88;1.10;;;;;;;22.42;32.62;98430.47;5133776;28;20055;-70
2022/06/20 10:25:27;;;;;;;5.22;1.30;;;;;;;22.71;32.35;98439.16;5133519;28;20051;-70
2022/06/20 10:28:21;;;;;;;2.47;0.80;;;;;;;22.69;32.18;98441.63;5133369;28;20520;-70
2022/06/20 10:30:57;;;;;;;4.05;0.98;;;;;;;22.42;32.64;98436.13;5114742;28;20081;-70
2022/06/20 10:33:56;;;;;;;5.35;1.00;;;;;;;22.16;33.18;98441.94;5133323;28;20043;-71
2022/06/20 10:36:43;;;;;;;3.42;1.25;;;;;;;21.91;33.50;98442.47;5133201;28;20130;-72
2022/06/20 10:39:44;;;;;;;5.07;1.27;;;;;;;21.72;33.60;98434.69;5132861;28;20054;-70
2022/06/20 10:42:42;;;;;;;5.25;1.02;;;;;;;21.81;33.47;98442.63;5133166;28;20093;-71
2022/06/20 10:45:32;;;;;;;3.00;0.90;;;;;;;21.86;33.51;98439.31;5132996;28;20500;-70
2022/06/20 10:48:23;;;;;;;1.73;0.85;;;;;;;21.86;33.06;98448.63;5111677;28;20082;-70
2022/06/20 10:51:04;;;;;;;2.60;0.95;;;;;;;21.79;33.22;98436.63;5120769;27;20061;-70
2022/06/20 10:53:51;;;;;;;6.35;1.08;;;;;;;21.76;33.60;98443.94;5117599;28;20158;-74
2022/06/20 10:57:00;;;;;;;4.28;1.42;;;;;;;21.60;34.38;98443.81;5121695;27;20521;-74
2022/06/20 10:59:57;;;;;;;4.40;1.65;;;;;;;21.52;34.74;98436.69;5097029;28;20039;-71
2022/06/20 11:02:27;;;;;;;3.83;0.98;;;;;;;21.42;35.37;98435.66;5119430;27;20047;-69
2022/06/20 11:05:33;;;;;;;5.82;1.40;;;;;;;21.60;35.31;98432.50;5133172;28;20073;-70
2022/06/20 11:08:03;;;;;;;6.55;1.50;;;;;;;21.68;35.12;98423.44;5127008;27;20178;-75
2022/06/20 11:10:39;;;;;;;;;;;;;;;21.60;35.07;98424.00;5116644;28;20498;-75
2022/06/20 11:13:25;;;;;;;3.15;1.20;;;;;;;21.78;35.00;98423.69;5133456;27;19923;-72
2022/06/20 11:16:03;;;;;;;8.50;1.42;;;;;;;21.91;34.63;98428.31;5134935;27;20425;-74
2022/06/20 11:18:39;;;;;;;3.93;1.33;;;;;;;22.09;34.65;98420.25;5128273;27;20097;-72
2022/06/20 11:21:30;;;;;;;4.53;1.27;;;;;;;21.99;34.97;98417.63;5132485;27;20054;-71
2022/06/20 11:24:12;;;;;;;2.50;1.02;;;;;;;21.98;35.09;98408.31;5136854;27;20054;-71
2022/06/20 11:26:56;;;;;;;10.00;1.30;;;;;;;21.73;35.59;98420.09;5125641;27;20127;-70
2022/06/20 11:29:33;;;;;;;4.60;1.25;;;;;;;21.63;35.71;98421.13;5124768;27;20043;-73
2022/06/20 11:32:23;;;;;;;6.47;1.05;;;;;;;21.55;35.03;98413.19;5127744;27;20046;-73
2022/06/20 11:35:01;;;;;;;4.65;1.08;;;;;;;21.46;35.60;98415.78;5129995;27;20405;-73
2022/06/20 11:37:38;;;;;;;2.97;1.02;;;;;;;21.47;35.37;98417.41;5121428;27;20070;-71
2022/06/20 11:40:12;;;;;;;3.50;1.10;;;;;;;21.48;35.57;98418.97;5123507;27;20436;-71
2022/06/20 11:43:16;;;;;;;5.55;1.35;;;;;;;21.50;35.57;98417.31;5127073;27;20052;-72
2022/06/20 11:45:55;;;;;;;6.68;1.25;;;;;;;21.52;35.11;98408.38;5125646;27;20409;-69
2022/06/20 11:48:48;;;;;;;3.38;1.17;;;;;;;21.51;34.91;98412.47;5125239;27;20058;-71
2022/06/20 11:51:29;;;;;;;4.10;1.10;;;;;;;21.67;34.83;98415.38;5128819;27;20054;-73
2022/06/20 11:54:21;;;;;;;3.38;1.00;;;;;;;21.84;34.89;98417.09;5135091;27;20047;-73
2022/06/20 11:57:10;;;;;;;5.20;1.25;;;;;;;22.04;34.66;98423.56;5126790;27;20047;-72
2022/06/20 11:59:52;;;;;;;;;;;;;;;22.06;34.57;98415.44;5110126;27;20049;-72
2022/06/20 12:02:53;;;;;;;3.30;1.48;;;;;;;22.26;34.33;98407.72;5135274;27;20017;-71
2022/06/20 12:05:43;;;;;;;7.53;1.35;;;;;;;22.23;34.43;98413.47;5127065;27;20043;-73
2022/06/20 12:08:41;;;;;;;4.78;1.52;;;;;;;22.16;34.87;98414.41;5128590;27;20051;-75
2022/06/20 12:11:15;;;;;;;4.70;1.45;;;;;;;22.16;35.06;98419.28;5130417;27;20541;-74
2022/06/20 12:14:17;;;;;;;7.32;1.20;;;;;;;22.18;34.97;98411.97;5135425;27;20046;-74
2022/06/20 12:17:11;;;;;;;4.68;1.00;;;;;;;22.21;34.87;98413.91;5132603;27;20043;-70
2022/06/20 12:23:21;;;;;;;17.90;4.68;;;;;;;21.69;35.98;98425.06;5127933;27;20124;-72
2022/06/20 12:25:55;;;;;;;3.22;1.30;;;;;;;21.70;36.00;98417.34;5127914;27;20130;-72
2022/06/20 12:28:33;;;;;;;8.60;1.38;;;;;;;21.64;36.21;98431.19;5111745;27;20575;-69
2022/06/20 12:31:19;;;;;;;33.50;6.85;;;;;;;21.46;36.90;98436.41;5129085;27;20050;-73
2022/06/20 12:33:52;;;;;;;5.28;1.58;;;;;;;21.33;37.13;98429.78;5105208;27;20058;-70
2022/06/20 12:36:39;;;;;;;5.43;1.05;;;;;;;21.30;37.37;98424.16;5129960;27;20118;-70
2022/06/20 12:39:32;;;;;;;6.05;1.40;;;;;;;21.21;37.58;98449.38;5129830;27;20043;-71
2022/06/20 12:42:43;;;;;;;7.30;1.27;;;;;;;21.17;37.53;98449.44;5127441;27;20142;-72
2022/06/20 12:45:41;;;;;;;4.38;1.50;;;;;;;21.21;37.58;98444.53;5122087;27;20137;-74
2022/06/20 12:48:17;;;;;;;5.30;1.50;;;;;;;21.24;37.79;98442.84;5132794;27;20573;-70
2022/06/20 12:51:08;;;;;;;11.63;1.13;;;;;;;21.26;37.79;98446.06;5135010;27;20039;-73
2022/06/20 12:53:53;;;;;;;6.20;1.38;;;;;;;21.24;37.99;98451.34;5132202;27;20047;-74
2022/06/20 12:57:11;;;;;;;4.25;1.20;;;;;;;21.31;37.91;98459.69;5131229;27;20505;-73
2022/06/20 13:00:00;;;;;;;12.38;2.30;;;;;;;21.18;38.19;98458.72;5050430;28;20160;-74
2022/06/20 13:02:43;;;;;;;6.60;1.70;;;;;;;21.03;39.49;98465.84;5048870;28;20045;-70
2022/06/20 13:05:32;;;;;;;2.92;1.50;;;;;;;21.03;40.08;98460.19;5100252;27;20056;-70
2022/06/20 13:08:32;;;;;;;6.32;1.83;;;;;;;21.19;41.13;98463.13;5132088;27;20050;-72
2022/06/20 13:11:13;;;;;;;10.25;2.10;;;;;;;21.25;42.00;98458.59;5123614;27;20051;-71
2022/06/20 13:14:06;;;;;;;8.05;2.35;;;;;;;21.21;43.56;98464.34;5121679;27;20061;-71
2022/06/20 13:17:07;;;;;;;6.10;2.50;;;;;;;21.22;44.01;98462.28;5116979;27;20449;-71
2022/06/20 13:19:43;;;;;;;6.40;2.42;;;;;;;21.24;44.49;98451.34;5126912;27;20497;-70